Time;durP1;ratioP1;P1;durP2;ratioP2;P2;SDS_P1;SDS_P2;PMS_P1;PMS_P2;Temp;Humidity;BMP_temperature;BMP_pressure;BME280_temperature;BME280_humidity;BME280_pressure;Samples;Min_cycle;Max_cycle;Signal;HPM_P1;HPM_P2
2023/09/06 00:00:17;;;;;;;5.32;1.80;;;20.10;99.90;;;;;;5024041;28;20665;-74
2023/09/06 00:03:03;;;;;;;4.85;2.38;;;20.00;99.90;;;;;;5025579;28;20041;-74
2023/09/06 00:05:49;;;;;;;4.93;1.90;;;20.00;99.90;;;;;;5035778;28;20055;-74
2023/09/06 00:08:35;;;;;;;4.65;1.63;;;19.90;99.90;;;;;;5047651;28;20657;-74
2023/09/06 00:11:21;;;;;;;3.80;2.00;;;19.90;99.90;;;;;;5034113;28;20037;-74
2023/09/06 00:14:07;;;;;;;6.57;2.20;;;19.90;99.90;;;;;;5028654;28;20106;-74
2023/09/06 00:16:53;;;;;;;6.50;2.40;;;19.80;99.90;;;;;;5023421;28;20127;-74
2023/09/06 00:19:39;;;;;;;4.38;2.00;;;19.80;99.90;;;;;;5029537;28;20061;-74
2023/09/06 00:22:25;;;;;;;8.50;2.13;;;19.70;99.90;;;;;;5035325;28;20041;-74
2023/09/06 00:25:11;;;;;;;6.32;1.98;;;19.70;99.90;;;;;;5035911;28;20041;-74
2023/09/06 00:27:58;;;;;;;6.57;1.98;;;19.60;99.90;;;;;;5046330;28;20045;-74
2023/09/06 00:30:44;;;;;;;8.52;2.67;;;19.70;99.90;;;;;;5043656;28;20343;-74
2023/09/06 00:33:33;;;;;;;5.82;2.30;;;19.60;99.90;;;;;;5024573;28;20387;-75
2023/09/06 00:36:19;;;;;;;6.18;2.10;;;19.60;99.90;;;;;;5005013;28;20044;-74
2023/09/06 00:39:06;;;;;;;6.05;2.08;;;19.50;99.90;;;;;;5030123;28;20041;-74
2023/09/06 00:41:52;;;;;;;7.05;2.33;;;19.40;99.90;;;;;;5036181;28;20045;-74
2023/09/06 00:44:38;;;;;;;4.13;2.00;;;19.40;99.90;;;;;;5036978;28;20178;-74
2023/09/06 00:47:25;;;;;;;6.32;1.80;;;19.40;99.90;;;;;;5036374;28;20087;-75
2023/09/06 00:50:14;;;;;;;3.47;1.83;;;19.30;99.90;;;;;;5034579;28;20029;-74
2023/09/06 00:53:00;;;;;;;5.85;2.00;;;19.30;99.90;;;;;;5031203;28;20428;-74
2023/09/06 00:55:48;;;;;;;5.90;2.00;;;19.30;99.90;;;;;;5017922;28;20133;-76
2023/09/06 00:58:35;;;;;;;2.63;1.85;;;19.30;99.90;;;;;;5027285;28;20485;-73
2023/09/06 01:01:21;;;;;;;4.10;1.80;;;19.20;99.90;;;;;;5021223;28;20045;-75
2023/09/06 01:04:07;;;;;;;5.10;1.98;;;19.20;99.90;;;;;;5035729;28;20052;-73
2023/09/06 01:06:57;;;;;;;5.70;1.67;;;19.10;99.90;;;;;;5050784;28;20496;-74
2023/09/06 01:09:43;;;;;;;3.58;2.15;;;19.00;99.90;;;;;;5019069;28;20478;-74
2023/09/06 01:12:29;;;;;;;4.03;1.88;;;19.00;99.90;;;;;;5021585;28;20046;-74
2023/09/06 01:15:15;;;;;;;3.95;2.08;;;18.90;99.90;;;;;;5046904;28;20102;-74
2023/09/06 01:18:02;;;;;;;2.92;1.60;;;18.90;99.90;;;;;;5022525;28;20045;-74
2023/09/06 01:20:52;;;;;;;4.60;1.58;;;18.80;99.90;;;;;;5045540;28;20049;-74
2023/09/06 01:23:39;;;;;;;4.25;2.10;;;18.80;99.90;;;;;;5017369;28;20034;-75
2023/09/06 01:26:25;;;;;;;3.22;2.00;;;18.80;99.90;;;;;;5031795;28;20125;-73
2023/09/06 01:29:11;;;;;;;6.80;2.20;;;18.60;99.90;;;;;;5017974;28;20036;-74
2023/09/06 01:31:57;;;;;;;3.83;1.90;;;18.70;99.90;;;;;;5038544;28;20041;-74
2023/09/06 01:34:43;;;;;;;3.15;1.90;;;18.70;99.90;;;;;;5034355;28;20033;-74
2023/09/06 01:37:30;;;;;;;3.45;1.85;;;18.60;99.90;;;;;;5013039;28;20460;-74
2023/09/06 01:40:17;;;;;;;6.30;2.15;;;18.60;99.90;;;;;;5020121;28;20044;-74
2023/09/06 01:43:03;;;;;;;3.35;1.77;;;18.60;99.90;;;;;;5031748;28;20037;-74
2023/09/06 01:45:54;;;;;;;6.82;1.95;;;18.60;99.90;;;;;;5040115;28;20144;-73
2023/09/06 01:48:40;;;;;;;3.65;1.65;;;18.50;99.90;;;;;;5050431;28;20044;-74
2023/09/06 01:51:26;;;;;;;2.92;1.98;;;18.50;99.90;;;;;;5046103;28;20037;-74
2023/09/06 01:54:12;;;;;;;4.40;2.10;;;18.50;99.90;;;;;;5022279;28;20033;-74
2023/09/06 01:56:58;;;;;;;3.17;2.17;;;18.50;99.90;;;;;;5029606;28;20350;-74
2023/09/06 01:59:44;;;;;;;3.95;2.17;;;18.50;99.90;;;;;;5055712;28;20047;-74
2023/09/06 02:02:30;;;;;;;5.40;2.20;;;18.50;99.90;;;;;;5041075;28;20049;-74
2023/09/06 02:05:16;;;;;;;5.40;2.17;;;18.40;99.90;;;;;;5048305;28;20041;-74
2023/09/06 02:08:04;;;;;;;3.53;2.50;;;18.40;99.90;;;;;;5038427;28;20044;-74
2023/09/06 02:10:50;;;;;;;4.70;2.35;;;18.30;99.90;;;;;;5046033;28;20041;-74
2023/09/06 02:13:36;;;;;;;4.68;2.05;;;18.30;99.90;;;;;;5029017;28;20068;-74
2023/09/06 02:16:22;;;;;;;5.95;2.03;;;18.30;99.90;;;;;;5020718;28;20038;-74
2023/09/06 02:19:08;;;;;;;4.28;1.83;;;18.20;99.90;;;;;;5041239;28;20061;-74
2023/09/06 02:21:54;;;;;;;5.35;1.85;;;18.20;99.90;;;;;;5037621;28;20049;-74
2023/09/06 02:24:40;;;;;;;5.78;2.25;;;18.10;99.90;;;;;;5043882;28;20056;-74
2023/09/06 02:27:25;;;;;;;4.57;2.30;;;18.00;99.90;;;;;;5034879;28;20048;-74
2023/09/06 02:30:13;;;;;;;8.52;2.30;;;18.10;99.90;;;;;;5039225;28;20045;-74
2023/09/06 02:33:00;;;;;;;5.45;2.05;;;18.00;99.90;;;;;;5034155;28;20041;-74
2023/09/06 02:35:46;;;;;;;5.63;2.50;;;18.00;99.90;;;;;;5058799;28;20048;-74
2023/09/06 02:38:32;;;;;;;3.08;1.98;;;18.00;99.90;;;;;;5026009;28;20465;-74
2023/09/06 02:41:20;;;;;;;4.57;1.83;;;17.90;99.90;;;;;;5038313;28;20124;-74
2023/09/06 02:44:06;;;;;;;7.72;2.13;;;17.90;99.90;;;;;;5050222;28;20032;-74
2023/09/06 02:46:53;;;;;;;4.05;1.90;;;17.70;99.90;;;;;;5032735;28;20104;-74
2023/09/06 02:49:41;;;;;;;6.07;2.30;;;17.80;99.90;;;;;;5033533;28;20045;-74
2023/09/06 02:52:28;;;;;;;4.13;1.80;;;17.80;99.90;;;;;;5033231;28;20486;-74
2023/09/06 02:55:14;;;;;;;6.00;2.05;;;17.70;99.90;;;;;;5031201;28;20049;-74
2023/09/06 02:58:02;;;;;;;3.85;2.00;;;17.70;99.90;;;;;;5037502;28;20040;-75
2023/09/06 03:00:49;;;;;;;6.15;2.30;;;17.60;99.90;;;;;;5020049;28;20041;-74
2023/09/06 03:03:34;;;;;;;4.40;2.20;;;17.60;99.90;;;;;;5037860;28;20381;-74
2023/09/06 03:06:32;;;;;;;4.05;1.90;;;17.60;99.90;;;;;;5059823;28;20076;-74
2023/09/06 03:09:18;;;;;;;6.70;2.05;;;17.70;99.90;;;;;;5036661;28;20049;-74
2023/09/06 03:12:11;;;;;;;3.53;1.98;;;17.60;99.90;;;;;;5044562;28;20086;-74
2023/09/06 03:14:59;;;;;;;5.03;2.63;;;17.60;99.90;;;;;;5045924;28;20037;-74
2023/09/06 03:17:46;;;;;;;4.03;2.78;;;17.60;99.90;;;;;;5034841;28;20037;-74
2023/09/06 03:20:42;;;;;;;6.53;2.60;;;17.70;99.90;;;;;;5048188;28;20055;-74
2023/09/06 03:23:32;;;;;;;6.07;3.03;;;17.70;99.90;;;;;;5035744;28;20577;-74
2023/09/06 03:26:18;;;;;;;6.20;2.70;;;17.70;99.90;;;;;;5044194;28;20044;-74
2023/09/06 03:29:04;;;;;;;6.68;3.20;;;17.70;99.90;;;;;;5019744;28;20053;-74
2023/09/06 03:31:53;;;;;;;3.90;2.75;;;17.70;99.90;;;;;;5052244;28;20385;-74
2023/09/06 03:34:41;;;;;;;4.63;2.45;;;17.60;99.90;;;;;;5038395;28;20033;-74
2023/09/06 03:37:30;;;;;;;6.85;2.80;;;17.50;99.90;;;;;;5039011;28;20040;-74
2023/09/06 03:40:34;;;;;;;5.50;2.40;;;17.60;99.90;;;;;;5039482;28;20107;-74
2023/09/06 03:43:29;;;;;;;3.90;2.15;;;17.50;99.90;;;;;;5038732;28;20694;-74
2023/09/06 03:46:16;;;;;;;4.47;2.35;;;17.50;99.90;;;;;;5051414;28;20032;-74
2023/09/06 03:49:05;;;;;;;9.23;3.03;;;17.50;99.90;;;;;;5006849;28;20080;-74
2023/09/06 03:51:52;;;;;;;5.10;2.53;;;17.40;99.90;;;;;;5037000;28;20049;-74
2023/09/06 03:54:38;;;;;;;5.60;2.25;;;17.40;99.90;;;;;;5036186;28;20350;-74
2023/09/06 03:57:25;;;;;;;4.45;2.80;;;17.40;99.90;;;;;;5017260;28;20124;-74
2023/09/06 04:00:29;;;;;;;4.32;2.50;;;17.30;99.90;;;;;;5035211;28;20633;-74
2023/09/06 04:03:15;;;;;;;6.80;2.60;;;17.30;99.90;;;;;;5031944;28;20065;-74
2023/09/06 04:06:03;;;;;;;4.30;2.10;;;17.20;99.90;;;;;;5031136;28;20123;-74
2023/09/06 04:08:50;;;;;;;6.85;2.67;;;17.20;99.90;;;;;;5014158;28;20052;-74
2023/09/06 04:11:36;;;;;;;8.23;2.38;;;17.20;99.90;;;;;;5039920;28;20253;-74
2023/09/06 04:14:22;;;;;;;7.38;3.10;;;17.20;99.90;;;;;;5050450;28;20033;-74
2023/09/06 04:17:08;;;;;;;6.72;2.92;;;17.10;99.90;;;;;;5052433;28;20469;-74
2023/09/06 04:19:54;;;;;;;5.63;2.53;;;17.00;99.90;;;;;;5017706;28;20060;-74
2023/09/06 04:22:40;;;;;;;4.70;3.00;;;17.00;99.90;;;;;;5039455;28;20486;-74
2023/09/06 04:25:26;;;;;;;4.72;2.63;;;16.90;99.90;;;;;;5035601;28;20127;-74
2023/09/06 04:28:13;;;;;;;7.32;2.97;;;16.80;99.90;;;;;;5034914;28;20501;-74
2023/09/06 04:31:01;;;;;;;6.85;2.50;;;16.80;99.90;;;;;;5039909;28;20529;-74
2023/09/06 04:33:47;;;;;;;9.00;3.10;;;16.90;99.90;;;;;;5037230;28;20033;-74
2023/09/06 04:36:36;;;;;;;7.20;2.58;;;16.90;99.90;;;;;;5030306;28;20477;-74
2023/09/06 04:39:25;;;;;;;6.18;2.55;;;16.80;99.90;;;;;;5027601;28;20045;-74
2023/09/06 04:42:11;;;;;;;7.35;2.70;;;16.80;99.90;;;;;;5039600;28;20065;-74
2023/09/06 04:44:57;;;;;;;5.25;2.90;;;16.90;99.90;;;;;;5018421;28;20091;-74
2023/09/06 04:47:43;;;;;;;6.75;2.53;;;16.80;99.90;;;;;;5033614;28;20925;-74
2023/09/06 04:50:29;;;;;;;5.30;3.15;;;16.70;99.90;;;;;;5022554;28;20032;-74
2023/09/06 04:53:18;;;;;;;4.78;2.53;;;16.70;99.90;;;;;;5039551;28;20040;-74
2023/09/06 04:56:04;;;;;;;6.82;2.92;;;16.60;99.90;;;;;;5035255;28;20586;-74
2023/09/06 04:58:50;;;;;;;6.68;2.90;;;16.60;99.90;;;;;;5026386;28;20195;-74
2023/09/06 05:01:36;;;;;;;6.30;2.75;;;16.70;99.90;;;;;;5023015;28;20632;-74
2023/09/06 05:04:23;;;;;;;8.73;2.83;;;16.70;99.90;;;;;;5020653;28;20184;-74
2023/09/06 05:07:09;;;;;;;7.88;3.15;;;16.80;99.90;;;;;;5047675;28;20127;-74
2023/09/06 05:09:57;;;;;;;4.50;2.65;;;16.80;99.90;;;;;;5039130;28;20373;-74
2023/09/06 05:12:45;;;;;;;4.47;2.70;;;16.80;99.90;;;;;;5036486;28;20365;-74
2023/09/06 05:15:31;;;;;;;7.43;2.80;;;16.90;99.90;;;;;;5025185;28;20029;-74
2023/09/06 05:18:17;;;;;;;5.25;2.88;;;16.90;99.90;;;;;;5038982;28;20040;-74
2023/09/06 05:21:04;;;;;;;5.05;2.28;;;16.90;99.90;;;;;;5056816;28;20045;-74
2023/09/06 05:23:50;;;;;;;5.85;3.33;;;16.90;99.90;;;;;;5035014;28;20052;-74
2023/09/06 05:26:36;;;;;;;5.07;2.97;;;16.90;99.90;;;;;;5042404;28;20048;-74
2023/09/06 05:29:22;;;;;;;4.07;2.60;;;16.80;99.90;;;;;;5025851;28;20055;-74
2023/09/06 05:32:08;;;;;;;5.60;3.50;;;16.80;99.90;;;;;;5043164;28;20125;-74
2023/09/06 05:34:54;;;;;;;7.13;3.45;;;16.80;99.90;;;;;;5023089;28;20073;-74
2023/09/06 05:37:40;;;;;;;10.48;4.57;;;16.80;99.90;;;;;;5050538;28;20064;-74
2023/09/06 05:40:26;;;;;;;7.60;5.63;;;16.80;99.90;;;;;;5036766;28;20366;-74
2023/09/06 05:43:13;;;;;;;7.45;5.90;;;16.80;99.90;;;;;;5025022;28;20149;-74
2023/09/06 05:45:59;;;;;;;8.20;5.40;;;16.80;99.90;;;;;;5026466;28;20084;-75
2023/09/06 05:48:46;;;;;;;8.55;5.88;;;16.90;99.90;;;;;;5048861;28;20665;-74
2023/09/06 05:51:32;;;;;;;10.23;6.50;;;16.90;99.90;;;;;;5029955;28;20681;-74
2023/09/06 05:54:18;;;;;;;9.38;6.10;;;16.90;99.90;;;;;;5035003;28;20041;-74
2023/09/06 05:57:05;;;;;;;9.57;6.10;;;17.00;99.90;;;;;;5028474;28;20545;-74
2023/09/06 05:59:51;;;;;;;9.18;6.63;;;17.00;99.90;;;;;;5034595;28;20490;-74
2023/09/06 06:02:37;;;;;;;12.60;6.50;;;17.10;99.90;;;;;;5063374;28;20424;-74
2023/09/06 06:05:24;;;;;;;8.70;6.82;;;17.20;99.90;;;;;;5034438;28;20037;-74
2023/09/06 06:08:10;;;;;;;8.23;6.30;;;17.20;99.90;;;;;;5040697;28;20201;-74
2023/09/06 06:10:56;;;;;;;9.38;6.00;;;17.30;99.90;;;;;;5021567;28;20045;-74
2023/09/06 06:13:42;;;;;;;10.85;6.65;;;17.30;99.90;;;;;;5046697;28;20075;-74
2023/09/06 06:16:28;;;;;;;9.52;7.38;;;17.40;99.90;;;;;;5056694;28;20041;-74
2023/09/06 06:19:14;;;;;;;9.40;7.22;;;17.50;99.90;;;;;;5038071;28;20478;-74
2023/09/06 06:22:01;;;;;;;11.07;7.65;;;17.40;99.90;;;;;;5040953;28;20113;-74
2023/09/06 06:24:47;;;;;;;8.60;6.50;;;17.40;99.90;;;;;;5008376;28;20041;-74
2023/09/06 06:27:33;;;;;;;11.07;6.57;;;17.50;99.90;;;;;;5028780;28;20128;-74
2023/09/06 06:30:19;;;;;;;11.57;7.47;;;17.60;99.90;;;;;;5034248;28;20075;-74
2023/09/06 06:33:06;;;;;;;10.98;7.20;;;17.70;99.90;;;;;;5048740;28;20041;-74
2023/09/06 06:35:52;;;;;;;9.68;6.63;;;17.80;99.90;;;;;;5036915;28;20051;-74
2023/09/06 06:38:37;;;;;;;9.50;6.22;;;17.80;99.90;;;;;;5030887;28;20126;-74
2023/09/06 06:41:24;;;;;;;11.13;6.35;;;17.90;99.90;;;;;;5031994;28;20120;-75
2023/09/06 06:44:10;;;;;;;10.43;6.50;;;18.00;99.90;;;;;;5020009;28;20100;-74
2023/09/06 06:46:56;;;;;;;9.23;6.78;;;18.10;99.90;;;;;;5050623;28;20063;-74
2023/09/06 06:49:43;;;;;;;12.32;6.53;;;18.10;99.90;;;;;;5040225;28;20051;-74
2023/09/06 06:52:36;;;;;;;10.32;6.63;;;18.20;99.90;;;;;;5032395;28;20040;-74
2023/09/06 06:55:22;;;;;;;8.25;6.43;;;18.30;99.90;;;;;;5027402;28;20079;-74
2023/09/06 06:58:08;;;;;;;11.93;7.10;;;18.30;99.90;;;;;;5007677;28;20040;-74
2023/09/06 07:00:54;;;;;;;11.55;6.55;;;18.40;99.90;;;;;;5016674;28;20084;-74
2023/09/06 07:03:42;;;;;;;10.45;6.70;;;18.50;99.90;;;;;;5022976;28;20478;-74
2023/09/06 07:06:30;;;;;;;9.63;6.50;;;18.50;99.90;;;;;;5042025;28;20722;-75
2023/09/06 07:09:16;;;;;;;13.23;6.68;;;18.70;99.90;;;;;;5052489;28;20291;-74
2023/09/06 07:12:02;;;;;;;11.15;7.55;;;18.70;99.90;;;;;;5041771;28;20064;-74
2023/09/06 07:14:48;;;;;;;10.70;6.78;;;18.90;99.90;;;;;;5052828;28;20037;-74
2023/09/06 07:17:34;;;;;;;8.13;6.72;;;18.90;99.90;;;;;;5050385;28;20076;-74
2023/09/06 07:20:22;;;;;;;12.90;7.05;;;19.10;99.90;;;;;;5038090;28;20136;-74
2023/09/06 07:23:08;;;;;;;11.70;6.35;;;19.10;99.90;;;;;;5039944;28;20497;-76
2023/09/06 07:25:54;;;;;;;12.10;6.82;;;19.20;99.90;;;;;;5034062;28;20071;-75
2023/09/06 07:28:42;;;;;;;10.88;6.53;;;19.20;99.90;;;;;;5009874;28;20053;-75
2023/09/06 07:31:28;;;;;;;8.55;5.88;;;19.30;99.90;;;;;;5040733;28;20353;-75
2023/09/06 07:34:14;;;;;;;11.00;6.32;;;19.40;99.90;;;;;;5026813;28;20041;-75
2023/09/06 07:37:01;;;;;;;12.02;6.82;;;19.40;99.90;;;;;;5042727;28;20041;-75
2023/09/06 07:39:47;;;;;;;11.50;5.47;;;19.50;99.90;;;;;;5022270;28;20060;-75
2023/09/06 07:42:37;;;;;;;11.95;6.20;;;19.60;99.90;;;;;;5029482;28;20115;-74
2023/09/06 07:45:23;;;;;;;11.02;5.72;;;19.70;99.90;;;;;;5034839;28;20132;-75
2023/09/06 07:48:09;;;;;;;7.95;5.38;;;19.80;99.90;;;;;;5047541;28;20037;-74
2023/09/06 07:50:56;;;;;;;10.07;5.05;;;19.90;99.90;;;;;;5023576;28;20037;-75
2023/09/06 07:53:43;;;;;;;7.72;4.63;;;20.00;99.90;;;;;;5031452;28;20037;-75
2023/09/06 07:56:29;;;;;;;11.68;4.90;;;20.00;99.90;;;;;;5035551;28;20041;-75
2023/09/06 07:59:19;;;;;;;8.18;3.80;;;20.20;99.90;;;;;;5052982;28;20037;-76
2023/09/06 08:02:05;;;;;;;7.90;4.88;;;20.30;99.90;;;;;;5043038;28;20048;-74
2023/09/06 08:04:51;;;;;;;10.65;4.68;;;20.40;99.90;;;;;;5019069;28;20382;-74
2023/09/06 08:07:38;;;;;;;10.18;4.05;;;20.40;99.90;;;;;;5051976;28;20044;-75
2023/09/06 08:10:25;;;;;;;8.02;4.13;;;20.60;99.90;;;;;;5037161;28;20041;-74
2023/09/06 08:13:11;;;;;;;7.18;4.05;;;20.60;99.90;;;;;;5053187;28;20456;-76
2023/09/06 08:15:57;;;;;;;10.85;3.30;;;20.80;99.90;;;;;;5049594;28;20075;-74
2023/09/06 08:18:44;;;;;;;8.45;3.83;;;20.90;99.90;;;;;;5035772;28;20791;-75
2023/09/06 08:21:30;;;;;;;7.80;3.22;;;21.00;99.90;;;;;;5025261;28;20056;-75
2023/09/06 08:24:17;;;;;;;7.45;2.83;;;21.10;99.90;;;;;;5049182;28;20047;-75
2023/09/06 08:27:05;;;;;;;6.75;2.72;;;21.20;99.90;;;;;;5037603;28;20091;-75
2023/09/06 08:29:51;;;;;;;8.73;2.65;;;21.20;99.90;;;;;;5021171;28;20052;-75
2023/09/06 08:32:38;;;;;;;5.40;2.22;;;21.30;99.90;;;;;;5028214;28;20041;-75
2023/09/06 08:35:26;;;;;;;6.63;2.28;;;21.40;99.90;;;;;;5041908;28;20127;-75
2023/09/06 08:38:13;;;;;;;5.28;1.80;;;21.50;99.90;;;;;;5052016;28;20045;-75
2023/09/06 08:40:59;;;;;;;3.50;1.93;;;21.60;99.90;;;;;;5042762;28;20098;-75
2023/09/06 08:43:46;;;;;;;5.50;1.80;;;21.60;99.90;;;;;;5040875;28;20310;-75
2023/09/06 08:46:33;;;;;;;6.80;2.00;;;21.70;99.90;;;;;;5031978;28;20095;-74
2023/09/06 08:49:19;;;;;;;4.03;1.70;;;21.80;99.90;;;;;;5017599;28;20124;-75
2023/09/06 08:52:05;;;;;;;5.70;2.25;;;21.80;99.90;;;;;;5031643;28;20049;-75
2023/09/06 08:54:51;;;;;;;9.65;2.40;;;21.90;99.90;;;;;;5039153;28;20127;-74
2023/09/06 08:57:41;;;;;;;7.43;2.20;;;22.00;99.90;;;;;;5019231;28;20099;-75
2023/09/06 09:00:29;;;;;;;3.65;2.15;;;22.10;99.90;;;;;;5030302;28;20350;-74
2023/09/06 09:03:15;;;;;;;4.03;2.10;;;22.20;99.90;;;;;;5029214;28;20041;-74
2023/09/06 09:06:06;;;;;;;6.88;2.10;;;22.30;99.90;;;;;;5039323;28;20044;-75
2023/09/06 09:08:52;;;;;;;4.03;1.83;;;22.40;99.90;;;;;;5030482;28;20041;-74
2023/09/06 09:11:41;;;;;;;5.50;1.90;;;22.50;99.90;;;;;;5044934;28;20098;-75
2023/09/06 09:14:27;;;;;;;2.78;1.67;;;22.60;99.90;;;;;;5035001;28;20094;-75
2023/09/06 09:17:13;;;;;;;7.93;2.35;;;22.70;99.90;;;;;;5037489;28;20041;-74
2023/09/06 09:19:59;;;;;;;5.72;2.35;;;22.80;99.90;;;;;;5031355;28;20059;-75
2023/09/06 09:22:45;;;;;;;6.07;2.05;;;22.90;99.90;;;;;;5033201;28;20052;-76
2023/09/06 09:25:32;;;;;;;3.05;1.80;;;23.00;99.90;;;;;;5029377;28;20072;-75
2023/09/06 09:28:18;;;;;;;4.70;1.88;;;23.10;99.90;;;;;;5039690;28;20130;-75
2023/09/06 09:31:05;;;;;;;5.65;1.85;;;23.30;99.90;;;;;;5048391;28;20044;-75
2023/09/06 09:33:51;;;;;;;4.65;2.40;;;23.50;99.90;;;;;;5030226;28;20540;-75
2023/09/06 09:36:43;;;;;;;5.78;2.17;;;23.60;99.90;;;;;;5011312;28;20120;-75
2023/09/06 09:39:29;;;;;;;12.10;2.50;;;23.70;99.90;;;;;;5022973;28;20195;-75
2023/09/06 09:42:15;;;;;;;4.47;2.05;;;23.90;99.90;;;;;;5019073;28;20041;-76
2023/09/06 09:45:02;;;;;;;9.25;2.47;;;24.10;99.90;;;;;;5035323;28;20155;-76
2023/09/06 09:47:48;;;;;;;11.05;2.15;;;24.30;99.90;;;;;;5011966;28;20140;-75
2023/09/06 09:50:34;;;;;;;5.38;1.90;;;24.20;99.90;;;;;;5021416;28;20050;-76
2023/09/06 09:53:23;;;;;;;4.88;1.80;;;24.50;99.90;;;;;;5031268;28;20037;-75
2023/09/06 09:56:09;;;;;;;5.65;2.30;;;24.70;99.90;;;;;;5037897;28;20038;-75
2023/09/06 09:58:55;;;;;;;5.95;1.80;;;24.90;99.90;;;;;;5028615;28;20060;-76
2023/09/06 10:01:40;;;;;;;4.85;1.90;;;24.90;99.90;;;;;;5043636;28;20056;-76
2023/09/06 10:04:28;;;;;;;4.05;1.80;;;25.10;99.90;;;;;;5030102;28;20134;-74
2023/09/06 10:07:14;;;;;;;6.13;2.30;;;25.20;99.90;;;;;;5042162;28;20146;-75
2023/09/06 10:10:00;;;;;;;5.30;2.10;;;25.40;99.90;;;;;;5009268;28;20343;-75
2023/09/06 10:12:48;;;;;;;5.32;2.25;;;25.60;99.90;;;;;;5033151;28;20521;-75
2023/09/06 10:15:34;;;;;;;6.97;2.05;;;25.70;99.90;;;;;;5031251;28;20076;-76
2023/09/06 10:18:20;;;;;;;5.10;2.10;;;25.90;99.00;;;;;;5051224;28;20202;-76
2023/09/06 10:21:06;;;;;;;4.15;2.00;;;26.00;98.50;;;;;;5032249;28;20064;-76
2023/09/06 10:23:52;;;;;;;6.97;1.90;;;26.00;97.80;;;;;;5030410;28;20052;-76
2023/09/06 10:26:40;;;;;;;5.25;2.00;;;26.10;97.80;;;;;;5043286;28;20152;-76
2023/09/06 10:29:28;;;;;;;;;;;26.20;97.90;;;;;;5025273;28;20049;-75
2023/09/06 10:32:14;;;;;;;;;;;26.50;97.80;;;;;;5042086;28;20331;-75
2023/09/06 10:35:22;;;;;;;6.72;1.90;;;26.50;96.50;;;;;;5040705;28;20007;-75
2023/09/06 10:38:15;;;;;;;9.65;2.20;;;26.60;95.90;;;;;;5036844;28;20069;-75
2023/09/06 10:41:06;;;;;;;7.63;1.90;;;26.80;96.00;;;;;;5041007;28;20066;-75
2023/09/06 10:43:58;;;;;;;4.30;1.67;;;27.00;97.20;;;;;;5026544;28;20045;-76
2023/09/06 10:46:44;;;;;;;3.60;1.70;;;27.20;96.40;;;;;;5042700;28;20052;-75
2023/09/06 10:49:30;;;;;;;5.63;1.73;;;27.40;94.40;;;;;;5030326;28;20602;-75
2023/09/06 10:52:20;;;;;;;4.05;1.67;;;27.40;94.60;;;;;;5018987;28;20034;-76
2023/09/06 10:55:19;;;;;;;3.45;1.75;;;27.60;95.80;;;;;;5018546;28;20072;-76
2023/09/06 10:58:08;;;;;;;4.18;1.70;;;27.70;95.30;;;;;;5054375;28;20040;-76
2023/09/06 11:01:13;;;;;;;3.47;1.67;;;27.90;93.80;;;;;;5024334;28;20072;-76
2023/09/06 11:04:00;;;;;;;5.53;1.90;;;28.00;93.40;;;;;;5036497;28;20041;-76
2023/09/06 11:06:53;;;;;;;5.53;1.38;;;28.10;93.60;;;;;;5032802;28;20037;-75
2023/09/06 11:09:49;;;;;;;4.68;1.42;;;28.30;91.80;;;;;;5053801;28;20041;-75
2023/09/06 11:12:36;;;;;;;4.72;2.03;;;28.30;91.70;;;;;;5045820;28;20033;-76
2023/09/06 11:15:22;;;;;;;6.82;1.63;;;28.30;91.60;;;;;;5019665;28;20843;-75
2023/09/06 11:18:13;;;;;;;4.80;1.80;;;28.40;90.90;;;;;;5041664;28;20048;-75
2023/09/06 11:21:00;;;;;;;8.77;1.95;;;28.60;91.30;;;;;;5033288;28;20378;-76
2023/09/06 11:23:51;;;;;;;5.00;1.67;;;28.80;91.10;;;;;;5025821;28;20485;-76
2023/09/06 11:26:37;;;;;;;5.68;1.75;;;29.00;89.20;;;;;;5017213;28;20132;-75
2023/09/06 11:29:26;;;;;;;2.58;1.48;;;29.10;88.10;;;;;;5047402;28;20408;-76
2023/09/06 11:32:12;;;;;;;3.28;1.77;;;29.10;85.90;;;;;;5025872;28;20036;-75
2023/09/06 11:34:59;;;;;;;5.82;1.83;;;29.20;86.00;;;;;;5045690;28;20853;-75
2023/09/06 11:37:49;;;;;;;3.42;1.70;;;29.30;84.80;;;;;;5033528;28;20041;-75
2023/09/06 11:40:35;;;;;;;4.13;1.30;;;29.50;87.00;;;;;;5017959;28;20390;-75
2023/09/06 11:43:23;;;;;;;3.03;1.40;;;29.50;82.80;;;;;;5033722;28;20485;-75
2023/09/06 11:46:12;;;;;;;2.00;1.52;;;29.50;83.90;;;;;;5031342;28;20041;-75
2023/09/06 11:48:58;;;;;;;2.90;1.27;;;29.70;84.20;;;;;;5036946;28;20047;-75
2023/09/06 11:51:47;;;;;;;2.83;1.58;;;29.80;84.20;;;;;;5012072;28;20045;-75
2023/09/06 11:54:37;;;;;;;3.05;1.75;;;29.90;81.30;;;;;;5051762;28;20032;-75
2023/09/06 11:57:26;;;;;;;2.33;1.48;;;30.00;80.90;;;;;;5014485;28;20045;-75
2023/09/06 12:00:28;;;;;;;2.08;1.40;;;30.10;78.40;;;;;;5036798;28;20037;-75
2023/09/06 12:03:16;;;;;;;3.47;1.60;;;30.10;79.90;;;;;;5046434;28;20041;-76
2023/09/06 12:06:05;;;;;;;2.70;1.27;;;30.10;76.60;;;;;;5025834;28;20048;-75
2023/09/06 12:08:51;;;;;;;3.35;1.48;;;30.10;76.90;;;;;;5041586;28;20103;-75
2023/09/06 12:11:39;;;;;;;2.53;1.50;;;30.30;76.40;;;;;;5024829;28;20032;-76
2023/09/06 12:14:26;;;;;;;3.38;1.33;;;30.40;75.90;;;;;;5050750;28;20094;-74
2023/09/06 12:17:12;;;;;;;4.28;2.13;;;30.50;75.80;;;;;;5040219;28;20129;-75
2023/09/06 12:20:02;;;;;;;3.72;1.55;;;30.60;75.00;;;;;;5047065;28;20048;-75
2023/09/06 12:22:49;;;;;;;2.80;1.48;;;30.70;73.20;;;;;;5029222;28;20045;-75
2023/09/06 12:25:35;;;;;;;3.90;1.50;;;30.80;74.10;;;;;;5031296;28;20040;-75
2023/09/06 12:28:21;;;;;;;4.70;1.40;;;31.00;73.60;;;;;;5020141;28;20045;-76
2023/09/06 12:31:07;;;;;;;3.97;1.55;;;31.10;71.80;;;;;;5012931;28;20130;-76
2023/09/06 12:33:53;;;;;;;3.08;1.35;;;31.20;72.90;;;;;;5037168;28;20047;-76
2023/09/06 12:36:39;;;;;;;6.55;1.50;;;31.40;73.10;;;;;;5016371;28;20049;-77
2023/09/06 12:39:26;;;;;;;3.97;1.40;;;31.60;73.10;;;;;;5024880;28;20049;-75
2023/09/06 12:42:12;;;;;;;7.45;1.52;;;31.80;72.10;;;;;;5031709;28;20045;-76
2023/09/06 12:44:58;;;;;;;2.95;1.30;;;31.80;69.10;;;;;;5033461;28;20038;-76
2023/09/06 12:47:44;;;;;;;5.40;1.33;;;32.00;69.60;;;;;;5047786;28;20545;-75
2023/09/06 12:50:30;;;;;;;1.90;1.27;;;32.10;69.10;;;;;;5037758;28;20051;-75
2023/09/06 12:53:16;;;;;;;3.22;1.35;;;32.50;70.70;;;;;;5042559;28;20038;-76
2023/09/06 12:56:04;;;;;;;3.88;1.63;;;35.10;69.30;;;;;;5023785;28;20119;-77
2023/09/06 12:58:50;;;;;;;5.82;1.40;;;40.20;56.80;;;;;;5038015;28;20633;-76
2023/09/06 13:01:36;;;;;;;4.32;1.38;;;44.10;52.00;;;;;;5047588;28;20052;-76
2023/09/06 13:04:22;;;;;;;3.08;1.30;;;45.90;46.70;;;;;;5036416;28;20076;-77
2023/09/06 13:07:07;;;;;;;1.98;1.20;;;47.80;42.30;;;;;;5030949;28;20076;-78
2023/09/06 13:09:53;;;;;;;2.47;1.10;;;48.70;42.90;;;;;;5032416;28;20080;-76
2023/09/06 13:12:40;;;;;;;2.10;1.13;;;48.80;40.70;;;;;;5048011;28;20049;-76
2023/09/06 13:15:26;;;;;;;2.67;1.20;;;48.30;39.30;;;;;;5031067;28;20037;-77
2023/09/06 13:18:12;;;;;;;4.30;1.10;;;46.60;38.50;;;;;;5029679;28;20046;-77
2023/09/06 13:21:00;;;;;;;3.10;1.42;;;43.90;43.30;;;;;;5030772;28;20033;-76
2023/09/06 13:23:45;;;;;;;4.20;1.30;;;41.90;45.80;;;;;;5022893;28;20080;-75
2023/09/06 13:26:32;;;;;;;5.43;1.83;;;40.30;47.60;;;;;;5047951;28;20127;-77
2023/09/06 13:29:18;;;;;;;7.32;1.63;;;42.50;44.60;;;;;;5033222;28;20049;-77
2023/09/06 13:32:06;;;;;;;3.63;1.65;;;48.60;41.50;;;;;;5043555;28;20640;-77
2023/09/06 13:34:54;;;;;;;5.18;1.70;;;49.40;41.70;;;;;;5036571;28;20052;-77
2023/09/06 13:37:40;;;;;;;3.55;1.20;;;51.70;40.50;;;;;;5032044;28;20725;-77
2023/09/06 13:40:26;;;;;;;5.63;1.30;;;51.70;39.10;;;;;;5052040;28;20064;-77
2023/09/06 13:43:12;;;;;;;4.22;1.23;;;51.20;37.30;;;;;;5029096;28;20470;-77
2023/09/06 13:45:59;;;;;;;3.40;1.38;;;50.10;36.60;;;;;;5027371;28;20147;-77
2023/09/06 13:48:45;;;;;;;2.05;1.50;;;48.80;36.60;;;;;;5024448;28;20048;-77
2023/09/06 13:51:31;;;;;;;5.75;1.40;;;51.50;37.50;;;;;;5053085;28;20040;-77
2023/09/06 13:54:17;;;;;;;;;;;53.40;38.30;;;;;;5036483;28;20033;-77
2023/09/06 13:57:03;;;;;;;3.55;1.33;;;53.70;37.30;;;;;;5040118;28;20000;-76
2023/09/06 13:59:49;;;;;;;5.57;1.30;;;53.90;36.90;;;;;;5043069;28;20600;-77
2023/09/06 14:02:35;;;;;;;4.95;1.40;;;54.00;36.00;;;;;;5025480;28;20045;-77
2023/09/06 14:05:21;;;;;;;3.42;1.30;;;54.00;36.60;;;;;;5033011;28;20490;-77
2023/09/06 14:08:07;;;;;;;3.20;1.40;;;54.20;36.30;;;;;;5042798;28;20057;-77
2023/09/06 14:10:53;;;;;;;3.22;1.20;;;54.50;36.50;;;;;;5033108;28;20033;-77
2023/09/06 14:13:39;;;;;;;2.47;1.35;;;54.10;35.40;;;;;;5048511;28;20421;-76
2023/09/06 14:16:25;;;;;;;4.38;1.38;;;52.70;35.70;;;;;;5033505;28;20048;-78
2023/09/06 14:19:11;;;;;;;5.25;1.42;;;53.70;35.70;;;;;;5048371;28;20076;-76
2023/09/06 14:21:57;;;;;;;3.88;1.40;;;53.70;35.80;;;;;;5033330;28;20079;-77
2023/09/06 14:24:43;;;;;;;2.30;1.50;;;54.00;35.10;;;;;;5034144;28;20045;-75
2023/09/06 14:27:29;;;;;;;4.22;1.20;;;53.70;36.10;;;;;;5048835;28;20152;-75